Time;durP1;ratioP1;P1;durP2;ratioP2;P2;SDS_P1;SDS_P2;PMS_P1;PMS_P2;Temp;Humidity;BMP_temperature;BMP_pressure;BME280_temperature;BME280_humidity;BME280_pressure;Samples;Min_cycle;Max_cycle;Signal;HPM_P1;HPM_P2
2022/08/03 00:00:51;;;;;;;4.00;3.47;;;;;;;;;;5004870;28;20969;-69
2022/08/03 00:03:17;;;;;;;4.30;3.97;;;;;;;;;;5005001;28;20413;-70
2022/08/03 00:05:43;;;;;;;3.67;3.37;;;;;;;;;;4986610;28;20410;-69
2022/08/03 00:08:09;;;;;;;3.93;3.53;;;;;;;;;;5004028;28;20462;-70
2022/08/03 00:10:36;;;;;;;3.60;3.30;;;;;;;;;;5004707;28;20449;-70
2022/08/03 00:13:03;;;;;;;4.40;3.60;;;;;;;;;;5004665;28;20411;-68
2022/08/03 00:15:29;;;;;;;5.03;3.20;;;;;;;;;;5004982;28;20419;-69
2022/08/03 00:17:55;;;;;;;3.80;3.50;;;;;;;;;;5004585;28;20943;-68
2022/08/03 00:20:21;;;;;;;3.70;3.40;;;;;;;;;;4986550;28;20457;-69
2022/08/03 00:22:47;;;;;;;3.53;3.23;;;;;;;;;;5004720;28;20411;-69
2022/08/03 00:25:13;;;;;;;3.40;2.93;;;;;;;;;;4986774;28;20970;-68
2022/08/03 00:27:39;;;;;;;3.60;3.30;;;;;;;;;;5004651;28;20469;-70
2022/08/03 00:30:05;;;;;;;3.40;3.10;;;;;;;;;;5004095;28;20431;-69
2022/08/03 00:32:31;;;;;;;4.30;3.90;;;;;;;;;;5004704;28;20417;-69
2022/08/03 00:34:57;;;;;;;3.80;3.50;;;;;;;;;;5003256;28;20916;-69
2022/08/03 00:37:23;;;;;;;3.63;2.57;;;;;;;;;;5003856;28;20418;-67
2022/08/03 00:39:49;;;;;;;3.37;3.10;;;;;;;;;;5004384;28;20841;-69
2022/08/03 00:42:15;;;;;;;3.50;3.20;;;;;;;;;;5004146;28;20599;-69
2022/08/03 00:44:42;;;;;;;3.90;3.60;;;;;;;;;;5004454;28;20907;-69
2022/08/03 00:47:09;;;;;;;3.93;3.20;;;;;;;;;;5004470;28;20462;-69
2022/08/03 00:49:36;;;;;;;3.67;3.37;;;;;;;;;;5004187;28;21602;-69
2022/08/03 00:52:02;;;;;;;3.80;3.23;;;;;;;;;;5003784;28;20415;-69
2022/08/03 00:54:28;;;;;;;3.70;3.40;;;;;;;;;;5004134;28;20411;-70
2022/08/03 00:56:54;;;;;;;4.10;3.70;;;;;;;;;;5004211;28;20430;-70
2022/08/03 00:59:20;;;;;;;3.33;2.90;;;;;;;;;;5004079;28;20434;-69
2022/08/03 01:01:46;;;;;;;4.33;3.93;;;;;;;;;;5004031;28;20426;-69
2022/08/03 01:04:12;;;;;;;3.50;3.20;;;;;;;;;;5004198;28;20414;-69
2022/08/03 01:06:41;;;;;;;3.40;3.10;;;;;;;;;;5003435;28;20829;-68
2022/08/03 01:09:16;;;;;;;4.30;3.90;;;;;;;;;;5003823;28;20423;-69
2022/08/03 01:11:42;;;;;;;4.10;3.80;;;;;;;;;;5004203;28;20414;-70
2022/08/03 01:14:10;;;;;;;4.93;3.77;;;;;;;;;;5004159;28;20414;-68
2022/08/03 01:16:36;;;;;;;3.70;3.40;;;;;;;;;;5003451;28;20739;-68
2022/08/03 01:19:02;;;;;;;3.60;3.30;;;;;;;;;;5004075;28;20915;-69
2022/08/03 01:21:32;;;;;;;3.70;3.30;;;;;;;;;;5003460;28;20560;-69
2022/08/03 01:24:05;;;;;;;4.13;3.73;;;;;;;;;;5003464;28;20472;-68
2022/08/03 01:27:00;;;;;;;4.07;3.77;;;;;;;;;;5003504;28;20505;-69
2022/08/03 01:29:32;;;;;;;3.70;3.40;;;;;;;;;;4916504;28;20482;-70
2022/08/03 01:32:03;;;;;;;4.20;3.90;;;;;;;;;;5003943;28;21039;-70
2022/08/03 01:34:31;;;;;;;3.57;3.27;;;;;;;;;;5003863;28;20916;-69
2022/08/03 01:36:59;;;;;;;3.53;3.23;;;;;;;;;;5002948;28;20457;-69
2022/08/03 01:39:25;;;;;;;4.13;3.73;;;;;;;;;;5003679;28;20868;-70
2022/08/03 01:42:05;;;;;;;3.90;3.60;;;;;;;;;;5003930;28;20943;-69
2022/08/03 01:44:33;;;;;;;3.80;3.50;;;;;;;;;;5004202;28;20418;-70
2022/08/03 01:47:00;;;;;;;4.00;3.27;;;;;;;;;;5003834;28;20454;-69
2022/08/03 01:49:28;;;;;;;4.00;3.70;;;;;;;;;;5003686;28;20526;-69
2022/08/03 01:51:55;;;;;;;5.17;3.40;;;;;;;;;;5003629;28;20465;-69
2022/08/03 01:54:22;;;;;;;4.07;3.30;;;;;;;;;;4986385;28;20454;-70
2022/08/03 01:56:50;;;;;;;3.40;3.07;;;;;;;;;;5003939;28;20415;-70
2022/08/03 01:59:18;;;;;;;4.93;3.33;;;;;;;;;;5003405;28;20522;-69
2022/08/03 02:01:44;;;;;;;3.37;3.07;;;;;;;;;;5003469;28;20441;-69
2022/08/03 02:04:11;;;;;;;3.70;3.40;;;;;;;;;;5004689;28;20419;-69
2022/08/03 02:06:38;;;;;;;3.03;2.73;;;;;;;;;;4988524;28;20593;-69
2022/08/03 02:09:05;;;;;;;4.03;3.10;;;;;;;;;;5007129;28;20508;-69
2022/08/03 02:11:33;;;;;;;3.60;3.30;;;;;;;;;;5006930;28;20418;-69
2022/08/03 02:14:00;;;;;;;4.00;3.70;;;;;;;;;;5006958;28;20410;-69
2022/08/03 02:16:27;;;;;;;3.60;3.30;;;;;;;;;;5007107;28;20407;-70
2022/08/03 02:18:54;;;;;;;3.37;3.10;;;;;;;;;;5006907;28;20446;-70
2022/08/03 02:21:21;;;;;;;3.57;3.27;;;;;;;;;;5006332;28;20461;-70
2022/08/03 02:23:47;;;;;;;3.83;3.53;;;;;;;;;;5006918;28;20486;-69
2022/08/03 02:26:15;;;;;;;4.20;3.77;;;;;;;;;;4988874;28;20477;-70
2022/08/03 02:28:42;;;;;;;3.37;3.07;;;;;;;;;;5006629;28;20468;-70
2022/08/03 02:31:12;;;;;;;3.77;3.37;;;;;;;;;;5006613;28;20616;-68
2022/08/03 02:33:42;;;;;;;3.53;3.27;;;;;;;;;;5006888;28;20400;-70
2022/08/03 02:36:09;;;;;;;4.30;3.70;;;;;;;;;;5005256;28;20419;-68
2022/08/03 02:38:36;;;;;;;4.07;3.73;;;;;;;;;;5006440;28;20473;-68
2022/08/03 02:41:05;;;;;;;4.00;3.70;;;;;;;;;;5006205;28;20576;-70
2022/08/03 02:43:33;;;;;;;4.80;3.80;;;;;;;;;;5006128;28;20930;-69
2022/08/03 02:45:59;;;;;;;3.60;3.30;;;;;;;;;;5006592;28;20466;-70
2022/08/03 02:48:28;;;;;;;4.07;3.47;;;;;;;;;;5006476;28;20462;-69
2022/08/03 02:50:55;;;;;;;3.80;3.50;;;;;;;;;;5005817;28;20442;-70
2022/08/03 02:53:21;;;;;;;4.20;3.50;;;;;;;;;;5005961;28;20919;-68
2022/08/03 02:55:48;;;;;;;3.80;3.53;;;;;;;;;;5006350;28;20750;-69
2022/08/03 02:58:17;;;;;;;3.50;3.20;;;;;;;;;;5006107;28;20773;-70
2022/08/03 03:00:44;;;;;;;2.73;2.53;;;;;;;;;;5005061;28;20469;-69
2022/08/03 03:03:10;;;;;;;3.43;3.13;;;;;;;;;;5006298;28;20414;-68
2022/08/03 03:05:37;;;;;;;3.97;3.67;;;;;;;;;;4987881;28;20881;-69
2022/08/03 03:08:03;;;;;;;3.80;3.50;;;;;;;;;;5005708;28;20465;-69
2022/08/03 03:10:29;;;;;;;4.10;3.70;;;;;;;;;;4988532;28;20797;-70
2022/08/03 03:12:56;;;;;;;5.07;4.57;;;;;;;;;;4988547;28;20915;-70
2022/08/03 03:15:23;;;;;;;4.73;4.33;;;;;;;;;;5005801;28;21187;-69
2022/08/03 03:17:49;;;;;;;4.90;3.87;;;;;;;;;;5006501;28;20935;-70
2022/08/03 03:20:17;;;;;;;4.10;3.80;;;;;;;;;;5005454;28;20950;-68
2022/08/03 03:22:43;;;;;;;4.20;3.77;;;;;;;;;;5005547;28;20445;-68
2022/08/03 03:25:10;;;;;;;4.83;3.60;;;;;;;;;;5006395;28;20769;-70
2022/08/03 03:27:36;;;;;;;4.23;3.83;;;;;;;;;;5005590;28;20458;-69
2022/08/03 03:30:03;;;;;;;4.47;4.07;;;;;;;;;;5005667;28;20485;-70
2022/08/03 03:32:29;;;;;;;4.00;3.70;;;;;;;;;;5005892;28;20858;-69
2022/08/03 03:34:58;;;;;;;4.20;3.90;;;;;;;;;;5005521;28;20415;-72
2022/08/03 03:37:24;;;;;;;4.10;3.80;;;;;;;;;;5003951;28;20696;-70
2022/08/03 03:39:50;;;;;;;3.80;3.50;;;;;;;;;;5005157;28;20455;-69
2022/08/03 03:42:16;;;;;;;4.93;4.53;;;;;;;;;;5005299;28;20834;-69
2022/08/03 03:44:42;;;;;;;3.90;3.60;;;;;;;;;;5005434;28;20411;-69
2022/08/03 03:47:08;;;;;;;4.13;3.83;;;;;;;;;;5005641;28;20549;-72
2022/08/03 03:49:34;;;;;;;5.17;3.80;;;;;;;;;;5005555;28;20514;-71
2022/08/03 03:52:00;;;;;;;4.10;3.80;;;;;;;;;;5005106;28;20418;-71
2022/08/03 03:54:26;;;;;;;4.57;4.03;;;;;;;;;;5004952;28;20469;-70
2022/08/03 03:56:52;;;;;;;5.40;4.63;;;;;;;;;;5005384;28;20415;-69
2022/08/03 03:59:18;;;;;;;5.50;5.00;;;;;;;;;;5004793;28;20517;-71
2022/08/03 04:01:44;;;;;;;6.00;5.50;;;;;;;;;;5005199;28;20469;-70
2022/08/03 04:12:30;;;;;;;5.00;4.50;;;20.50;99.90;;;;;;5034187;23;20440;-68
2022/08/03 04:14:58;;;;;;;6.13;4.83;;;20.50;99.90;;;;;;5043298;28;20420;-69
2022/08/03 04:17:27;;;;;;;5.37;4.60;;;20.50;99.90;;;;;;5043872;28;20456;-69
2022/08/03 04:19:53;;;;;;;4.80;4.50;;;20.40;99.90;;;;;;5026080;28;20773;-67
2022/08/03 04:22:24;;;;;;;5.37;4.87;;;20.40;99.90;;;;;;5043966;28;20704;-68
2022/08/03 04:24:55;;;;;;;5.30;4.90;;;20.40;99.90;;;;;;5043964;28;20474;-68
2022/08/03 04:27:24;;;;;;;4.90;4.30;;;20.50;99.90;;;;;;5043519;28;20455;-68
2022/08/03 04:29:53;;;;;;;6.23;5.63;;;20.60;99.90;;;;;;5044614;28;20410;-69
2022/08/03 04:32:24;;;;;;;5.47;5.07;;;20.70;99.90;;;;;;5044699;28;20816;-68
2022/08/03 04:34:50;;;;;;;5.57;5.07;;;20.70;99.90;;;;;;5044711;28;20401;-68
2022/08/03 04:37:27;;;;;;;5.23;4.83;;;20.80;99.90;;;;;;5043008;28;20445;-68
2022/08/03 04:39:56;;;;;;;5.20;4.80;;;20.80;99.90;;;;;;5044061;28;20412;-68
2022/08/03 04:42:23;;;;;;;5.40;5.00;;;20.70;99.90;;;;;;5026093;28;21007;-68
2022/08/03 04:44:50;;;;;;;5.10;4.70;;;20.80;99.90;;;;;;5044197;28;20837;-67
2022/08/03 04:47:16;;;;;;;5.57;5.07;;;20.70;99.90;;;;;;5043751;28;20448;-68
2022/08/03 04:49:42;;;;;;;6.10;5.60;;;20.80;99.90;;;;;;5044003;28;20427;-67
2022/08/03 04:52:08;;;;;;;5.70;5.20;;;20.90;99.90;;;;;;5043433;28;20634;-67
2022/08/03 04:54:42;;;;;;;5.90;5.40;;;20.90;99.90;;;;;;5043462;28;20428;-68
2022/08/03 04:57:09;;;;;;;5.23;4.73;;;21.00;99.90;;;;;;5044708;28;20650;-68
2022/08/03 04:59:34;;;;;;;6.10;5.60;;;21.00;99.90;;;;;;5044072;28;20424;-67
2022/08/03 05:02:00;;;;;;;6.20;5.60;;;21.00;99.90;;;;;;5044128;28;20420;-68
2022/08/03 05:04:26;;;;;;;6.07;5.57;;;21.10;99.90;;;;;;5044131;28;20252;-68
2022/08/03 05:06:51;;;;;;;6.93;5.80;;;21.10;99.90;;;;;;5043905;28;20288;-68
2022/08/03 05:09:17;;;;;;;5.93;5.43;;;21.10;99.90;;;;;;5044466;28;20206;-68
2022/08/03 05:11:42;;;;;;;6.57;5.20;;;21.30;99.90;;;;;;5044568;28;20529;-67
2022/08/03 05:14:08;;;;;;;5.53;5.00;;;21.40;99.90;;;;;;5043509;28;20340;-67
2022/08/03 05:16:33;;;;;;;6.20;5.20;;;21.40;99.90;;;;;;5044151;28;20171;-67
2022/08/03 05:18:59;;;;;;;5.43;5.03;;;21.40;99.90;;;;;;5043492;28;20596;-68
2022/08/03 05:21:25;;;;;;;6.47;5.97;;;21.40;99.90;;;;;;5043198;28;20547;-69
2022/08/03 05:23:50;;;;;;;4.93;4.53;;;21.50;99.90;;;;;;5043476;28;20228;-68
2022/08/03 05:26:16;;;;;;;5.87;5.37;;;21.50;99.90;;;;;;5043007;28;20182;-68
2022/08/03 05:28:41;;;;;;;6.40;5.80;;;21.60;99.90;;;;;;5042850;28;20706;-67
2022/08/03 05:31:07;;;;;;;5.57;5.07;;;21.60;99.90;;;;;;5043217;28;20171;-67
2022/08/03 05:33:32;;;;;;;7.63;5.93;;;21.60;99.90;;;;;;5043319;28;20285;-67
2022/08/03 05:35:58;;;;;;;5.93;5.17;;;21.70;99.90;;;;;;5041562;28;21035;-68
2022/08/03 05:38:24;;;;;;;5.57;5.17;;;21.90;99.90;;;;;;5045153;28;20186;-67
2022/08/03 05:40:50;;;;;;;5.43;4.93;;;22.10;99.90;;;;;;5046849;28;20643;-67
2022/08/03 05:43:15;;;;;;;5.97;5.47;;;22.30;99.90;;;;;;5046987;28;20579;-67
2022/08/03 05:45:42;;;;;;;5.70;5.20;;;22.50;99.90;;;;;;5028821;28;20534;-67
2022/08/03 05:48:07;;;;;;;5.83;5.33;;;22.50;99.90;;;;;;5046849;28;20237;-67
2022/08/03 05:50:34;;;;;;;5.03;4.63;;;22.60;99.90;;;;;;5047313;28;20884;-67
2022/08/03 05:53:00;;;;;;;5.50;5.00;;;22.70;99.90;;;;;;5046771;28;21080;-68
2022/08/03 05:55:26;;;;;;;5.80;5.30;;;22.80;99.90;;;;;;5046672;28;20465;-67
2022/08/03 05:57:52;;;;;;;5.47;5.07;;;22.90;99.90;;;;;;5046946;28;20178;-67
2022/08/03 06:00:18;;;;;;;5.43;4.93;;;23.00;99.90;;;;;;5051404;28;20189;-68
2022/08/03 06:02:44;;;;;;;5.17;4.70;;;23.00;99.90;;;;;;5048326;28;20425;-70
2022/08/03 06:05:10;;;;;;;5.27;4.77;;;23.10;99.90;;;;;;5046431;28;20419;-69
2022/08/03 06:07:36;;;;;;;5.47;4.97;;;23.20;99.90;;;;;;5045802;28;21254;-69
2022/08/03 06:10:03;;;;;;;4.93;4.53;;;23.30;99.90;;;;;;5046471;28;20409;-67
2022/08/03 06:12:30;;;;;;;4.80;4.40;;;23.40;99.90;;;;;;5046119;28;20506;-68
2022/08/03 06:14:56;;;;;;;5.20;4.73;;;23.50;99.90;;;;;;5046115;28;20932;-68
2022/08/03 06:17:21;;;;;;;6.20;5.60;;;23.60;99.90;;;;;;5046081;28;20421;-68
2022/08/03 06:19:47;;;;;;;5.33;4.90;;;23.70;99.90;;;;;;5046033;28;20416;-69
2022/08/03 06:22:12;;;;;;;5.00;4.60;;;23.80;99.90;;;;;;5045746;28;20253;-68
2022/08/03 06:24:38;;;;;;;10.90;5.40;;;23.90;99.90;;;;;;5046055;28;20186;-68
2022/08/03 06:27:03;;;;;;;38.70;11.70;;;24.00;99.90;;;;;;5046243;28;20205;-69
2022/08/03 06:29:29;;;;;;;74.10;16.80;;;24.10;99.90;;;;;;5046529;28;20179;-68
2022/08/03 06:31:55;;;;;;;57.90;14.47;;;24.20;99.90;;;;;;5046238;28;20183;-72
2022/08/03 06:34:21;;;;;;;78.17;15.30;;;24.30;99.90;;;;;;5046148;28;20690;-69
2022/08/03 06:36:48;;;;;;;31.83;9.77;;;24.40;99.90;;;;;;5045143;28;20413;-67
2022/08/03 06:39:14;;;;;;;26.17;8.90;;;24.50;99.90;;;;;;5046315;28;20691;-68
2022/08/03 06:41:40;;;;;;;24.70;6.73;;;24.60;99.90;;;;;;5045885;28;20412;-69
2022/08/03 06:44:05;;;;;;;14.10;6.20;;;24.70;99.90;;;;;;5045868;28;20967;-67
2022/08/03 06:46:31;;;;;;;9.80;5.33;;;24.80;99.90;;;;;;5045918;28;20651;-67
2022/08/03 06:48:56;;;;;;;8.37;5.03;;;24.90;99.90;;;;;;5046168;28;20200;-70
2022/08/03 06:51:22;;;;;;;9.43;4.70;;;25.00;99.90;;;;;;5045604;28;20205;-69
2022/08/03 06:53:48;;;;;;;6.80;5.67;;;25.20;99.90;;;;;;5027783;28;20582;-68
2022/08/03 06:56:13;;;;;;;5.77;5.17;;;25.20;99.90;;;;;;5046247;28;20260;-67
2022/08/03 06:58:39;;;;;;;6.97;4.90;;;25.30;99.90;;;;;;5045658;28;20182;-67
2022/08/03 07:01:05;;;;;;;4.70;4.30;;;25.40;99.90;;;;;;5027939;28;20715;-68
2022/08/03 07:03:30;;;;;;;5.50;3.70;;;25.50;99.90;;;;;;5045504;28;20266;-67
2022/08/03 07:05:56;;;;;;;5.90;4.80;;;25.60;99.90;;;;;;5025666;28;20178;-68
2022/08/03 07:08:23;;;;;;;6.03;5.20;;;25.50;99.90;;;;;;5045612;28;20198;-68
2022/08/03 07:10:49;;;;;;;5.90;4.37;;;25.40;99.90;;;;;;5045498;28;20206;-68
2022/08/03 07:13:14;;;;;;;5.13;4.73;;;25.20;99.90;;;;;;5044930;28;20965;-67
2022/08/03 07:15:40;;;;;;;5.23;4.50;;;24.80;99.90;;;;;;5045555;28;20694;-70
2022/08/03 07:18:06;;;;;;;5.00;4.60;;;24.80;99.90;;;;;;5027481;28;20182;-67
2022/08/03 07:20:32;;;;;;;5.37;4.83;;;25.00;99.90;;;;;;5045263;28;20972;-66
2022/08/03 07:22:58;;;;;;;4.87;4.37;;;25.10;99.90;;;;;;5044952;28;20437;-66
2022/08/03 07:25:24;;;;;;;5.40;4.90;;;25.30;99.90;;;;;;5044601;28;20492;-69
2022/08/03 07:27:49;;;;;;;4.93;4.53;;;25.50;99.90;;;;;;5044960;28;20198;-67
2022/08/03 07:30:16;;;;;;;6.37;5.20;;;25.40;99.90;;;;;;5045129;28;20515;-71
2022/08/03 07:32:42;;;;;;;5.87;5.00;;;25.30;99.90;;;;;;5045224;28;20673;-70
2022/08/03 07:35:09;;;;;;;5.60;4.90;;;25.30;99.90;;;;;;5045109;28;20455;-67
2022/08/03 07:37:35;;;;;;;6.33;5.73;;;25.20;99.90;;;;;;5043566;28;20427;-67
2022/08/03 07:40:01;;;;;;;9.40;5.33;;;25.20;99.90;;;;;;5044970;28;20495;-69
2022/08/03 07:42:28;;;;;;;5.83;5.33;;;25.10;99.90;;;;;;5044710;28;20206;-68
2022/08/03 07:44:54;;;;;;;7.27;5.43;;;25.00;99.90;;;;;;5044800;28;20405;-69
2022/08/03 07:47:25;;;;;;;5.60;4.90;;;25.10;99.90;;;;;;5045134;28;20441;-70
2022/08/03 07:49:51;;;;;;;5.13;4.63;;;25.30;99.90;;;;;;5045015;28;20421;-68
2022/08/03 07:55:02;;;;;;;5.27;4.60;;;25.60;99.90;;;;;;5044823;28;20598;-72
2022/08/03 07:57:27;;;;;;;4.90;4.20;;;25.70;99.90;;;;;;5045140;28;20431;-69
2022/08/03 07:59:53;;;;;;;4.50;4.10;;;25.70;99.90;;;;;;5044467;28;20421;-71
2022/08/03 08:02:19;;;;;;;4.10;3.63;;;25.90;99.90;;;;;;5044603;28;20265;-70
2022/08/03 08:04:44;;;;;;;5.27;3.90;;;26.00;99.90;;;;;;5044414;28;20619;-69
2022/08/03 08:07:10;;;;;;;4.83;4.43;;;26.10;99.90;;;;;;5044181;28;20281;-68
2022/08/03 08:09:35;;;;;;;4.73;3.90;;;26.30;99.90;;;;;;5044449;28;20273;-68
2022/08/03 08:12:01;;;;;;;9.00;4.37;;;26.40;99.90;;;;;;5044450;28;20181;-70
2022/08/03 08:14:27;;;;;;;3.70;3.40;;;26.50;99.90;;;;;;5043945;28;20237;-68
2022/08/03 08:16:52;;;;;;;4.10;3.80;;;26.60;99.90;;;;;;5044439;28;20236;-68
2022/08/03 08:19:18;;;;;;;4.30;3.13;;;26.80;99.90;;;;;;5044127;28;20668;-68
2022/08/03 08:21:43;;;;;;;3.90;3.33;;;26.90;99.90;;;;;;5043827;28;20185;-70
2022/08/03 08:24:09;;;;;;;4.47;3.30;;;27.10;99.90;;;;;;5044566;28;20263;-68
2022/08/03 08:26:35;;;;;;;5.73;2.90;;;27.20;99.90;;;;;;5046413;28;20194;-70
2022/08/03 08:29:02;;;;;;;3.23;2.93;;;27.40;99.90;;;;;;5045491;28;20178;-68
2022/08/03 08:31:28;;;;;;;4.03;3.63;;;27.60;99.90;;;;;;5044419;28;20412;-68
2022/08/03 08:33:53;;;;;;;4.90;3.57;;;27.70;99.90;;;;;;5044094;28;20490;-69
2022/08/03 08:36:19;;;;;;;3.57;3.20;;;27.90;99.90;;;;;;5042595;28;20179;-68
2022/08/03 08:38:45;;;;;;;5.20;3.47;;;27.90;99.90;;;;;;5043940;28;20809;-68
2022/08/03 08:41:11;;;;;;;4.07;2.70;;;27.80;99.90;;;;;;5043971;28;20248;-68
2022/08/03 08:43:37;;;;;;;3.07;2.80;;;27.80;99.40;;;;;;5043866;28;20293;-69
2022/08/03 08:46:07;;;;;;;2.53;1.60;;;27.90;99.40;;;;;;5044539;28;20524;-69
2022/08/03 08:48:34;;;;;;;3.87;1.70;;;28.00;97.40;;;;;;5043935;28;20195;-69
2022/08/03 08:51:01;;;;;;;1.90;1.60;;;27.90;97.10;;;;;;5025597;28;20941;-67
2022/08/03 08:53:29;;;;;;;1.67;1.57;;;28.10;97.10;;;;;;5044421;28;20858;-69
2022/08/03 08:55:59;;;;;;;2.17;1.80;;;28.10;96.70;;;;;;5051275;28;20423;-69
2022/08/03 08:58:27;;;;;;;2.53;2.33;;;28.20;96.50;;;;;;5050527;28;20497;-70
2022/08/03 09:00:53;;;;;;;2.33;1.40;;;28.30;96.20;;;;;;5051446;28;20417;-67
2022/08/03 09:03:19;;;;;;;1.80;1.67;;;28.50;95.90;;;;;;5050524;28;20443;-70
2022/08/03 09:05:45;;;;;;;3.00;2.30;;;28.70;95.90;;;;;;5046891;28;20416;-67
2022/08/03 09:08:11;;;;;;;1.60;1.50;;;28.90;95.20;;;;;;5042900;28;20445;-67
2022/08/03 09:10:36;;;;;;;2.20;1.70;;;29.10;95.30;;;;;;5043536;28;20956;-70
2022/08/03 09:13:02;;;;;;;1.90;1.70;;;29.10;94.40;;;;;;5047047;28;20691;-69
2022/08/03 09:15:31;;;;;;;2.53;1.80;;;29.20;94.40;;;;;;5050557;28;20175;-67
2022/08/03 09:17:58;;;;;;;1.67;1.50;;;29.30;94.20;;;;;;5050219;28;20678;-67
2022/08/03 09:20:25;;;;;;;3.97;2.23;;;29.30;93.80;;;;;;5050062;28;20412;-69
2022/08/03 09:22:59;;;;;;;3.20;1.70;;;29.30;93.70;;;;;;5050002;28;20822;-69
2022/08/03 09:25:30;;;;;;;4.20;1.90;;;29.40;92.90;;;;;;5050242;28;20404;-70
2022/08/03 09:28:03;;;;;;;1.87;1.77;;;29.50;92.70;;;;;;5049780;28;20456;-69
2022/08/03 09:30:29;;;;;;;3.60;1.67;;;29.60;93.00;;;;;;5049966;28;20974;-71
2022/08/03 09:33:03;;;;;;;1.90;1.70;;;29.70;92.80;;;;;;5047402;28;20473;-67
2022/08/03 09:35:29;;;;;;;2.40;1.60;;;29.90;92.20;;;;;;5049932;28;20459;-66
2022/08/03 09:38:16;;;;;;;2.17;1.97;;;29.90;91.00;;;;;;5049071;28;20432;-70
2022/08/03 09:40:42;;;;;;;1.70;1.60;;;29.90;91.00;;;;;;5049398;28;20265;-68
2022/08/03 09:43:09;;;;;;;1.97;1.63;;;30.00;91.30;;;;;;5049758;28;20913;-69
2022/08/03 09:45:36;;;;;;;1.80;1.70;;;29.90;90.40;;;;;;5049479;28;20420;-69
2022/08/03 09:48:20;;;;;;;2.73;1.40;;;29.90;86.60;;;;;;5049639;28;20832;-68
2022/08/03 09:50:50;;;;;;;3.33;1.80;;;29.80;87.80;;;;;;5049339;28;20440;-67
2022/08/03 09:53:17;;;;;;;1.63;1.53;;;29.90;87.50;;;;;;5049262;28;20425;-69
2022/08/03 09:56:00;;;;;;;2.00;1.80;;;29.90;84.40;;;;;;5049220;28;20461;-68
2022/08/03 09:58:30;;;;;;;3.43;1.80;;;30.10;86.60;;;;;;5030421;28;20224;-69
2022/08/03 10:01:04;;;;;;;2.57;1.70;;;30.20;86.70;;;;;;5049449;28;20444;-70
2022/08/03 10:03:34;;;;;;;1.50;1.40;;;30.40;87.30;;;;;;5049298;28;20730;-69
2022/08/03 10:06:24;;;;;;;2.70;1.60;;;30.40;86.60;;;;;;5049131;28;20404;-70
2022/08/03 10:09:09;;;;;;;1.80;1.60;;;30.40;86.20;;;;;;5048930;28;20448;-69
2022/08/03 10:11:36;;;;;;;1.73;1.63;;;30.20;86.40;;;;;;5049499;28;20824;-71
2022/08/03 10:14:07;;;;;;;2.10;1.90;;;30.30;86.90;;;;;;5049108;28;20488;-69
2022/08/03 10:16:35;;;;;;;2.80;1.87;;;30.60;86.00;;;;;;5049417;28;20408;-68
2022/08/03 10:19:05;;;;;;;1.97;1.80;;;30.70;82.70;;;;;;5049306;28;20424;-68
2022/08/03 10:21:34;;;;;;;2.20;1.63;;;30.80;82.70;;;;;;5031534;28;20420;-69
2022/08/03 10:24:05;;;;;;;1.80;1.57;;;30.80;85.20;;;;;;5046715;28;20440;-70
2022/08/03 10:26:33;;;;;;;3.23;1.60;;;30.90;80.40;;;;;;5045717;28;20795;-69
2022/08/03 10:29:01;;;;;;;2.30;1.70;;;30.90;81.70;;;;;;5045873;28;20513;-69
2022/08/03 10:31:33;;;;;;;1.77;1.67;;;31.10;80.10;;;;;;5046371;28;20420;-71
2022/08/03 10:34:01;;;;;;;2.00;1.50;;;31.10;80.60;;;;;;5046357;28;20444;-70
2022/08/03 10:36:32;;;;;;;3.10;1.90;;;31.10;78.90;;;;;;5045962;28;20462;-70
2022/08/03 10:38:58;;;;;;;1.93;1.83;;;31.20;79.50;;;;;;5045268;28;20409;-70
2022/08/03 10:41:30;;;;;;;2.20;1.63;;;31.30;78.30;;;;;;5046390;28;20405;-70
2022/08/03 10:43:57;;;;;;;1.70;1.60;;;31.40;78.20;;;;;;5046105;28;20421;-70
2022/08/03 10:46:25;;;;;;;2.70;1.70;;;31.30;75.50;;;;;;5046028;28;20752;-69
2022/08/03 10:48:52;;;;;;;1.67;1.57;;;31.30;74.70;;;;;;5045858;28;20598;-70
2022/08/03 10:51:19;;;;;;;1.97;1.60;;;31.30;75.20;;;;;;5045638;28;20448;-71
2022/08/03 10:53:44;;;;;;;1.77;1.67;;;31.20;73.70;;;;;;5045846;28;20583;-72
2022/08/03 10:59:35;;;;;;;1.50;1.40;;;31.40;74.50;;;;;;5045893;28;20188;-70
2022/08/03 11:02:01;;;;;;;4.13;2.00;;;31.40;74.10;;;;;;5045778;28;20413;-71
2022/08/03 11:04:28;;;;;;;2.20;1.93;;;31.50;74.30;;;;;;5045657;28;20444;-70
2022/08/03 11:07:22;;;;;;;1.97;1.77;;;32.30;72.90;;;;;;5045421;28;20186;-70
2022/08/03 11:09:51;;;;;;;1.90;1.70;;;33.10;71.90;;;;;;5045611;28;20832;-70
2022/08/03 11:12:26;;;;;;;1.63;1.53;;;33.70;68.80;;;;;;5045300;28;20812;-69
2022/08/03 11:14:53;;;;;;;1.80;1.70;;;34.10;67.00;;;;;;5045314;28;20714;-72
2022/08/03 11:17:19;;;;;;;2.73;1.80;;;34.10;67.20;;;;;;5045453;28;20412;-68
2022/08/03 11:19:47;;;;;;;2.30;1.57;;;34.50;66.90;;;;;;5045600;28;20687;-68
2022/08/03 11:22:14;;;;;;;2.13;2.00;;;34.30;66.20;;;;;;5044958;28;20421;-70
2022/08/03 11:24:40;;;;;;;3.60;2.20;;;34.10;65.80;;;;;;5045275;28;20408;-69
2022/08/03 11:27:29;;;;;;;2.00;1.90;;;34.30;65.60;;;;;;5044680;28;21336;-69
2022/08/03 11:30:30;;;;;;;1.73;1.63;;;36.10;61.90;;;;;;5032404;28;20636;-69
2022/08/03 11:32:57;;;;;;;1.60;1.50;;;37.60;58.40;;;;;;4944271;29;20457;-67
2022/08/03 11:35:32;;;;;;;2.33;1.70;;;38.90;54.80;;;;;;5024421;28;20428;-69
2022/08/03 11:38:01;;;;;;;2.00;1.73;;;39.00;53.20;;;;;;5043711;28;20827;-70
2022/08/03 11:40:36;;;;;;;1.80;1.70;;;39.70;51.20;;;;;;5044552;28;20448;-69
2022/08/03 11:43:03;;;;;;;1.97;1.87;;;39.90;49.60;;;;;;5025638;28;20429;-69
2022/08/03 11:45:30;;;;;;;3.27;1.90;;;40.30;49.70;;;;;;5044556;28;20416;-69
2022/08/03 11:47:57;;;;;;;2.20;1.53;;;38.70;50.90;;;;;;5044337;28;21034;-69
2022/08/03 11:50:23;;;;;;;1.83;1.73;;;38.80;50.80;;;;;;5044207;28;20415;-69
2022/08/03 11:52:49;;;;;;;2.30;2.10;;;39.30;50.00;;;;;;5043678;28;21002;-69
2022/08/03 11:55:20;;;;;;;1.80;1.70;;;39.60;49.40;;;;;;5043772;28;20969;-69
2022/08/03 11:57:46;;;;;;;1.73;1.63;;;40.20;48.20;;;;;;5043825;28;20940;-70
2022/08/03 12:00:23;;;;;;;2.10;1.90;;;39.60;48.80;;;;;;5043861;28;20584;-69
2022/08/03 12:03:08;;;;;;;1.83;1.63;;;39.40;48.10;;;;;;5044237;28;20464;-70
2022/08/03 12:05:38;;;;;;;1.70;1.60;;;40.10;47.40;;;;;;5044373;28;20431;-67
2022/08/03 12:08:04;;;;;;;2.17;1.97;;;41.20;46.30;;;;;;5042793;28;20452;-70
2022/08/03 12:10:30;;;;;;;2.00;1.80;;;41.40;45.70;;;;;;5044539;28;20400;-71
2022/08/03 12:12:57;;;;;;;2.13;1.53;;;40.50;45.40;;;;;;5044140;28;20514;-70
2022/08/03 12:15:26;;;;;;;2.90;1.87;;;41.40;45.40;;;;;;5066706;22;20229;-73
2022/08/03 12:17:52;;;;;;;1.90;1.57;;;42.80;42.30;;;;;;5004572;28;20410;-70
2022/08/03 12:20:26;;;;;;;2.20;2.00;;;43.20;41.30;;;;;;5004702;28;20444;-71
2022/08/03 12:22:52;;;;;;;1.80;1.67;;;43.20;40.50;;;;;;5004007;28;20191;-69
2022/08/03 12:25:26;;;;;;;1.70;1.60;;;42.40;41.20;;;;;;5004706;28;20770;-71
2022/08/03 12:28:04;;;;;;;1.40;1.30;;;42.50;41.50;;;;;;5004568;28;20617;-70
2022/08/03 12:30:30;;;;;;;2.77;1.50;;;43.20;40.00;;;;;;5004446;28;20420;-70
2022/08/03 12:32:56;;;;;;;2.40;1.30;;;42.50;41.40;;;;;;5004496;28;20411;-73
2022/08/03 12:35:25;;;;;;;1.50;1.40;;;42.50;40.70;;;;;;5005790;28;20179;-72
2022/08/03 12:37:51;;;;;;;1.53;1.43;;;41.50;42.50;;;;;;5003111;28;20179;-70
2022/08/03 12:40:26;;;;;;;2.30;1.50;;;42.30;41.70;;;;;;5004742;28;20484;-72
2022/08/03 12:42:52;;;;;;;1.93;1.50;;;41.20;41.40;;;;;;5004103;28;20179;-70
2022/08/03 12:45:28;;;;;;;1.60;1.50;;;41.50;42.30;;;;;;5004358;28;20957;-72
2022/08/03 12:47:54;;;;;;;1.40;1.30;;;42.40;42.00;;;;;;5003350;28;20194;-70
2022/08/03 12:50:30;;;;;;;2.03;1.60;;;43.00;40.30;;;;;;5004224;28;20414;-73
2022/08/03 12:52:58;;;;;;;1.77;1.47;;;43.40;39.40;;;;;;5003982;28;20413;-71
2022/08/03 12:55:32;;;;;;;1.83;1.73;;;43.10;39.00;;;;;;5003996;28;20418;-73
2022/08/03 12:57:59;;;;;;;1.80;1.70;;;42.10;40.20;;;;;;4996733;28;20426;-71
2022/08/03 13:00:26;;;;;;;1.60;1.50;;;43.00;40.10;;;;;;5004349;28;20421;-70
2022/08/03 13:03:04;;;;;;;1.40;1.30;;;43.40;38.80;;;;;;5003996;28;20501;-69
2022/08/03 13:05:30;;;;;;;2.17;1.63;;;42.90;39.00;;;;;;5003928;28;20434;-69
2022/08/03 13:07:57;;;;;;;1.70;1.60;;;41.30;41.40;;;;;;5003793;28;20512;-71
2022/08/03 13:10:31;;;;;;;1.90;1.70;;;41.90;40.80;;;;;;5003824;28;20778;-69
2022/08/03 13:12:59;;;;;;;1.67;1.57;;;42.80;39.50;;;;;;5004357;28;20430;-70
2022/08/03 13:15:28;;;;;;;1.87;1.60;;;42.90;39.80;;;;;;5004134;28;20429;-71
2022/08/03 13:17:57;;;;;;;3.70;1.70;;;43.30;38.70;;;;;;5003952;28;20407;-71
2022/08/03 13:20:23;;;;;;;2.00;1.57;;;43.10;38.50;;;;;;5003975;28;20448;-72
2022/08/03 13:22:49;;;;;;;1.93;1.47;;;42.80;39.40;;;;;;5003512;28;20504;-71
2022/08/03 13:25:16;;;;;;;2.03;1.80;;;43.40;37.80;;;;;;5003431;28;20778;-72
2022/08/03 13:27:42;;;;;;;2.43;1.50;;;43.10;38.60;;;;;;5003973;28;20486;-71
2022/08/03 13:30:10;;;;;;;2.03;1.50;;;43.20;38.20;;;;;;5004006;28;20485;-70
2022/08/03 13:32:36;;;;;;;1.93;1.40;;;42.20;39.60;;;;;;5003947;28;20175;-71
2022/08/03 13:35:02;;;;;;;1.40;1.30;;;42.30;39.70;;;;;;5003713;28;20415;-72